sensor_id;sensor_type;location;lat;lon;timestamp;pressure;altitude;pressure_sealevel;temperature;humidity
69037;BME280;58547;51.690;5.186;2022-07-29T00:02:06;101723.22;;;17.74;56.26
69037;BME280;58547;51.690;5.186;2022-07-29T00:04:34;101725.13;;;17.72;56.63
69037;BME280;58547;51.690;5.186;2022-07-29T00:06:59;101722.63;;;17.71;56.97
69037;BME280;58547;51.690;5.186;2022-07-29T00:09:24;101724.53;;;17.69;56.66
69037;BME280;58547;51.690;5.186;2022-07-29T00:11:49;101711.34;;;17.69;57.08
69037;BME280;58547;51.690;5.186;2022-07-29T00:14:14;101713.09;;;17.68;57.42
69037;BME280;58547;51.690;5.186;2022-07-29T00:16:40;101713.09;;;17.68;58.17
69037;BME280;58547;51.690;5.186;2022-07-29T00:19:05;101714.41;;;17.63;57.04
69037;BME280;58547;51.690;5.186;2022-07-29T00:21:30;101718.81;;;17.62;57.43
69037;BME280;58547;51.690;5.186;2022-07-29T00:23:55;101717.16;;;17.61;57.10
69037;BME280;58547;51.690;5.186;2022-07-29T00:26:21;101705.13;;;17.57;57.42
69037;BME280;58547;51.690;5.186;2022-07-29T00:28:46;101704.16;;;17.58;57.39
69037;BME280;58547;51.690;5.186;2022-07-29T00:31:11;101709.75;;;17.53;58.08
69037;BME280;58547;51.690;5.186;2022-07-29T00:33:37;101703.84;;;17.50;56.29
69037;BME280;58547;51.690;5.186;2022-07-29T00:36:02;101697.09;;;17.46;58.03
69037;BME280;58547;51.690;5.186;2022-07-29T00:38:27;101707.44;;;17.49;58.66
69037;BME280;58547;51.690;5.186;2022-07-29T00:40:52;101699.53;;;17.49;57.96
69037;BME280;58547;51.690;5.186;2022-07-29T00:43:18;101689.31;;;17.44;57.82
69037;BME280;58547;51.690;5.186;2022-07-29T00:45:43;101695.00;;;17.38;58.26
69037;BME280;58547;51.690;5.186;2022-07-29T00:48:08;101701.13;;;17.38;57.12
69037;BME280;58547;51.690;5.186;2022-07-29T00:50:34;101695.00;;;17.38;58.88
69037;BME280;58547;51.690;5.186;2022-07-29T00:52:59;101695.84;;;17.38;59.02
69037;BME280;58547;51.690;5.186;2022-07-29T00:55:25;101691.41;;;17.39;59.27
69037;BME280;58547;51.690;5.186;2022-07-29T00:57:50;101676.66;;;17.36;58.63
69037;BME280;58547;51.690;5.186;2022-07-29T01:00:17;101685.72;;;17.32;59.71
69037;BME280;58547;51.690;5.186;2022-07-29T01:02:43;101683.00;;;17.34;58.69
69037;BME280;58547;51.690;5.186;2022-07-29T01:05:08;101687.19;;;17.36;60.11
69037;BME280;58547;51.690;5.186;2022-07-29T01:07:34;101689.19;;;17.33;58.44
69037;BME280;58547;51.690;5.186;2022-07-29T01:10:00;101692.47;;;17.36;60.34
69037;BME280;58547;51.690;5.186;2022-07-29T01:12:26;101701.56;;;17.32;59.17
69037;BME280;58547;51.690;5.186;2022-07-29T01:14:52;101703.13;;;17.35;59.09
69037;BME280;58547;51.690;5.186;2022-07-29T01:17:26;101696.69;;;17.39;56.49
69037;BME280;58547;51.690;5.186;2022-07-29T01:19:58;101696.59;;;17.40;58.73
69037;BME280;58547;51.690;5.186;2022-07-29T01:30:07;101690.97;;;17.45;56.91
69037;BME280;58547;51.690;5.186;2022-07-29T01:32:33;101675.91;;;17.47;58.30
69037;BME280;58547;51.690;5.186;2022-07-29T01:40:03;101675.47;;;17.40;57.88
69037;BME280;58547;51.690;5.186;2022-07-29T01:42:36;101673.06;;;17.37;58.22
69037;BME280;58547;51.690;5.186;2022-07-29T01:50:14;101666.84;;;17.38;59.41
69037;BME280;58547;51.690;5.186;2022-07-29T01:52:49;101665.03;;;17.39;58.76
69037;BME280;58547;51.690;5.186;2022-07-29T01:55:17;101653.66;;;17.38;59.06
69037;BME280;58547;51.690;5.186;2022-07-29T01:57:45;101650.28;;;17.36;59.61
69037;BME280;58547;51.690;5.186;2022-07-29T02:00:11;101652.19;;;17.34;58.09
69037;BME280;58547;51.690;5.186;2022-07-29T02:02:37;101644.38;;;17.33;59.58
69037;BME280;58547;51.690;5.186;2022-07-29T02:05:04;101643.53;;;17.32;59.52
69037;BME280;58547;51.690;5.186;2022-07-29T02:07:31;101645.34;;;17.32;58.89
69037;BME280;58547;51.690;5.186;2022-07-29T02:09:57;101638.59;;;17.28;59.56
69037;BME280;58547;51.690;5.186;2022-07-29T02:12:23;101635.13;;;17.27;60.73
69037;BME280;58547;51.690;5.186;2022-07-29T02:14:51;101641.84;;;17.31;58.28
69037;BME280;58547;51.690;5.186;2022-07-29T02:17:22;101646.81;;;17.23;59.76
69037;BME280;58547;51.690;5.186;2022-07-29T02:19:48;101648.19;;;17.16;59.93
69037;BME280;58547;51.690;5.186;2022-07-29T02:22:14;101652.72;;;17.14;60.17
69037;BME280;58547;51.690;5.186;2022-07-29T02:24:41;101646.72;;;17.12;59.73
69037;BME280;58547;51.690;5.186;2022-07-29T02:27:07;101642.91;;;17.03;60.69
69037;BME280;58547;51.690;5.186;2022-07-29T02:29:33;101647.44;;;17.01;60.85
69037;BME280;58547;51.690;5.186;2022-07-29T02:32:00;101646.94;;;16.96;61.22
69037;BME280;58547;51.690;5.186;2022-07-29T02:34:25;101647.22;;;16.91;62.00
69037;BME280;58547;51.690;5.186;2022-07-29T02:36:52;101651.16;;;16.86;61.41
69037;BME280;58547;51.690;5.186;2022-07-29T02:39:19;101652.09;;;16.85;61.50
69037;BME280;58547;51.690;5.186;2022-07-29T02:41:46;101649.53;;;16.83;61.24
69037;BME280;58547;51.690;5.186;2022-07-29T02:44:12;101641.63;;;16.83;61.85
69037;BME280;58547;51.690;5.186;2022-07-29T02:46:41;101641.63;;;16.83;61.10
69037;BME280;58547;51.690;5.186;2022-07-29T02:52:29;101649.00;;;16.78;61.74
69037;BME280;58547;51.690;5.186;2022-07-29T02:54:48;101642.25;;;16.74;63.53
69037;BME280;58547;51.690;5.186;2022-07-29T02:57:51;101640.97;;;16.67;62.33
69037;BME280;58547;51.690;5.186;2022-07-29T03:00:08;101642.97;;;16.63;61.25
69037;BME280;58547;51.690;5.186;2022-07-29T03:02:34;101643.28;;;16.58;61.58
69037;BME280;58547;51.690;5.186;2022-07-29T03:05:01;101630.22;;;16.57;62.15
69037;BME280;58547;51.690;5.186;2022-07-29T03:07:27;101627.91;;;16.52;64.78
69037;BME280;58547;51.690;5.186;2022-07-29T03:09:54;101631.69;;;16.48;62.47
69037;BME280;58547;51.690;5.186;2022-07-29T03:12:19;101631.13;;;16.43;62.96
69037;BME280;58547;51.690;5.186;2022-07-29T03:14:45;101636.47;;;16.42;63.48
69037;BME280;58547;51.690;5.186;2022-07-29T03:17:11;101629.94;;;16.34;63.55
69037;BME280;58547;51.690;5.186;2022-07-29T03:19:36;101637.09;;;16.32;63.98
69037;BME280;58547;51.690;5.186;2022-07-29T03:22:02;101637.31;;;16.29;63.05
69037;BME280;58547;51.690;5.186;2022-07-29T03:24:35;101635.53;;;16.30;62.99
69037;BME280;58547;51.690;5.186;2022-07-29T03:27:01;101640.78;;;16.30;62.91
69037;BME280;58547;51.690;5.186;2022-07-29T03:29:27;101635.63;;;16.28;64.96
69037;BME280;58547;51.690;5.186;2022-07-29T03:31:52;101631.41;;;16.26;63.74
69037;BME280;58547;51.690;5.186;2022-07-29T03:34:17;101638.56;;;16.24;64.12
69037;BME280;58547;51.690;5.186;2022-07-29T03:36:43;101641.50;;;16.19;62.32
69037;BME280;58547;51.690;5.186;2022-07-29T03:39:09;101643.19;;;16.20;63.25
69037;BME280;58547;51.690;5.186;2022-07-29T03:41:35;101629.34;;;16.16;65.79
69037;BME280;58547;51.690;5.186;2022-07-29T03:44:01;101635.59;;;16.15;65.77
69037;BME280;58547;51.690;5.186;2022-07-29T03:46:27;101629.47;;;16.15;62.87
69037;BME280;58547;51.690;5.186;2022-07-29T03:48:55;101631.38;;;16.13;66.55
69037;BME280;58547;51.690;5.186;2022-07-29T03:51:23;101632.59;;;16.07;66.43
69037;BME280;58547;51.690;5.186;2022-07-29T03:53:48;101630.19;;;16.04;66.48
69037;BME280;58547;51.690;5.186;2022-07-29T03:56:15;101632.91;;;16.03;65.67
69037;BME280;58547;51.690;5.186;2022-07-29T03:58:41;101635.63;;;16.01;66.12
69037;BME280;58547;51.690;5.186;2022-07-29T04:01:07;101627.00;;;15.99;66.04
69037;BME280;58547;51.690;5.186;2022-07-29T04:03:32;101628.78;;;15.98;64.75
69037;BME280;58547;51.690;5.186;2022-07-29T04:06:02;101623.91;;;15.92;65.39
69037;BME280;58547;51.690;5.186;2022-07-29T04:08:28;101627.78;;;15.87;67.72
69037;BME280;58547;51.690;5.186;2022-07-29T04:10:53;101628.84;;;15.84;66.69
69037;BME280;58547;51.690;5.186;2022-07-29T04:13:18;101628.09;;;15.82;65.43
69037;BME280;58547;51.690;5.186;2022-07-29T04:15:44;101626.50;;;15.80;66.92
69037;BME280;58547;51.690;5.186;2022-07-29T04:18:09;101618.91;;;15.75;66.35
69037;BME280;58547;51.690;5.186;2022-07-29T04:20:34;101626.19;;;15.70;66.63
69037;BME280;58547;51.690;5.186;2022-07-29T04:22:59;101624.69;;;15.66;64.98
69037;BME280;58547;51.690;5.186;2022-07-29T04:25:25;101637.19;;;15.62;66.10
69037;BME280;58547;51.690;5.186;2022-07-29T04:27:50;101647.94;;;15.59;66.56
69037;BME280;58547;51.690;5.186;2022-07-29T04:30:28;101655.16;;;15.55;66.06
69037;BME280;58547;51.690;5.186;2022-07-29T04:32:53;101652.53;;;15.55;64.67
69037;BME280;58547;51.690;5.186;2022-07-29T04:35:19;101650.72;;;15.56;65.43
69037;BME280;58547;51.690;5.186;2022-07-29T04:37:44;101651.78;;;15.53;65.44
69037;BME280;58547;51.690;5.186;2022-07-29T04:40:10;101658.06;;;15.51;66.53
69037;BME280;58547;51.690;5.186;2022-07-29T04:42:35;101657.31;;;15.49;66.44
69037;BME280;58547;51.690;5.186;2022-07-29T04:45:00;101653.84;;;15.48;67.40
69037;BME280;58547;51.690;5.186;2022-07-29T04:47:25;101653.00;;;15.48;66.07
69037;BME280;58547;51.690;5.186;2022-07-29T04:49:51;101645.31;;;15.45;68.03
69037;BME280;58547;51.690;5.186;2022-07-29T04:52:16;101650.38;;;15.48;66.40
69037;BME280;58547;51.690;5.186;2022-07-29T04:54:41;101648.69;;;15.47;68.31
69037;BME280;58547;51.690;5.186;2022-07-29T04:57:06;101645.09;;;15.48;66.57
69037;BME280;58547;51.690;5.186;2022-07-29T04:59:31;101642.47;;;15.48;66.51
69037;BME280;58547;51.690;5.186;2022-07-29T05:01:57;101640.06;;;15.45;68.24
69037;BME280;58547;51.690;5.186;2022-07-29T05:04:22;101640.97;;;15.44;64.85
69037;BME280;58547;51.690;5.186;2022-07-29T05:06:47;101649.91;;;15.41;67.44
69037;BME280;58547;51.690;5.186;2022-07-29T05:09:13;101660.34;;;15.43;67.68
69037;BME280;58547;51.690;5.186;2022-07-29T05:11:38;101657.78;;;15.41;67.21
69037;BME280;58547;51.690;5.186;2022-07-29T05:14:03;101660.34;;;15.43;67.97
69037;BME280;58547;51.690;5.186;2022-07-29T05:16:28;101664.63;;;15.44;68.30
69037;BME280;58547;51.690;5.186;2022-07-29T05:18:54;101655.00;;;15.44;68.42
69037;BME280;58547;51.690;5.186;2022-07-29T05:21:19;101668.03;;;15.46;68.03
69037;BME280;58547;51.690;5.186;2022-07-29T05:23:44;101661.75;;;15.48;68.18
69037;BME280;58547;51.690;5.186;2022-07-29T05:26:09;101665.88;;;15.52;68.21
69037;BME280;58547;51.690;5.186;2022-07-29T05:28:34;101667.25;;;15.58;68.55
69037;BME280;58547;51.690;5.186;2022-07-29T05:31:00;101660.88;;;15.62;67.54
69037;BME280;58547;51.690;5.186;2022-07-29T05:33:25;101652.72;;;15.67;66.76
69037;BME280;58547;51.690;5.186;2022-07-29T05:35:50;101663.13;;;15.68;67.87
69037;BME280;58547;51.690;5.186;2022-07-29T05:38:16;101663.97;;;15.69;67.45
69037;BME280;58547;51.690;5.186;2022-07-29T05:40:41;101670.81;;;15.71;67.39
69037;BME280;58547;51.690;5.186;2022-07-29T05:43:06;101655.75;;;15.75;67.02
69037;BME280;58547;51.690;5.186;2022-07-29T05:45:31;101663.63;;;15.75;68.60
69037;BME280;58547;51.690;5.186;2022-07-29T05:47:57;101675.00;;;15.75;67.87
69037;BME280;58547;51.690;5.186;2022-07-29T05:50:22;101682.59;;;15.80;68.63
69037;BME280;58547;51.690;5.186;2022-07-29T05:52:47;101688.59;;;15.82;67.87
69037;BME280;58547;51.690;5.186;2022-07-29T05:55:12;101703.16;;;15.88;68.56
69037;BME280;58547;51.690;5.186;2022-07-29T05:57:37;101694.97;;;15.92;66.81
69037;BME280;58547;51.690;5.186;2022-07-29T06:00:03;101711.28;;;15.97;67.25
69037;BME280;58547;51.690;5.186;2022-07-29T06:02:28;101703.13;;;16.02;67.21
69037;BME280;58547;51.690;5.186;2022-07-29T06:04:53;101703.66;;;16.07;67.46
69037;BME280;58547;51.690;5.186;2022-07-29T06:07:19;101697.94;;;16.15;67.72
69037;BME280;58547;51.690;5.186;2022-07-29T06:09:44;101692.44;;;16.18;66.92
69037;BME280;58547;51.690;5.186;2022-07-29T06:12:09;101699.41;;;16.19;66.02
69037;BME280;58547;51.690;5.186;2022-07-29T06:14:35;101702.13;;;16.17;66.57
69037;BME280;58547;51.690;5.186;2022-07-29T06:17:00;101699.19;;;16.22;66.48
69037;BME280;58547;51.690;5.186;2022-07-29T06:19:25;101704.28;;;16.25;66.96
69037;BME280;58547;51.690;5.186;2022-07-29T06:21:51;101701.44;;;16.28;67.29
69037;BME280;58547;51.690;5.186;2022-07-29T06:24:16;101702.09;;;16.32;66.64
69037;BME280;58547;51.690;5.186;2022-07-29T06:26:41;101706.41;;;16.33;65.84
69037;BME280;58547;51.690;5.186;2022-07-29T06:29:07;101700.31;;;16.32;66.18
69037;BME280;58547;51.690;5.186;2022-07-29T06:31:33;101701.88;;;16.35;66.42
69037;BME280;58547;51.690;5.186;2022-07-29T06:33:58;101696.53;;;16.36;67.16
69037;BME280;58547;51.690;5.186;2022-07-29T06:36:23;101696.22;;;16.41;65.92
69037;BME280;58547;51.690;5.186;2022-07-29T06:38:48;101700.34;;;16.45;66.19
69037;BME280;58547;51.690;5.186;2022-07-29T06:41:14;101699.41;;;16.46;66.14
69037;BME280;58547;51.690;5.186;2022-07-29T06:43:41;101695.31;;;16.55;67.09
69037;BME280;58547;51.690;5.186;2022-07-29T06:46:08;101689.44;;;16.64;65.97
69037;BME280;58547;51.690;5.186;2022-07-29T06:48:33;101702.31;;;16.69;66.33
69037;BME280;58547;51.690;5.186;2022-07-29T06:50:59;101698.72;;;16.70;66.69
69037;BME280;58547;51.690;5.186;2022-07-29T06:53:25;101702.53;;;16.78;66.33
69037;BME280;58547;51.690;5.186;2022-07-29T06:55:51;101700.34;;;16.85;65.08
69037;BME280;58547;51.690;5.186;2022-07-29T06:58:17;101701.97;;;16.88;64.68
69037;BME280;58547;51.690;5.186;2022-07-29T07:00:45;101702.81;;;16.88;65.11
69037;BME280;58547;51.690;5.186;2022-07-29T07:03:11;101708.31;;;16.98;65.74
69037;BME280;58547;51.690;5.186;2022-07-29T07:05:36;101705.25;;;17.04;65.71
69037;BME280;58547;51.690;5.186;2022-07-29T07:08:01;101705.78;;;17.09;64.80
69037;BME280;58547;51.690;5.186;2022-07-29T07:10:26;101714.41;;;17.11;63.96
69037;BME280;58547;51.690;5.186;2022-07-29T07:12:52;101713.56;;;17.11;64.97
69037;BME280;58547;51.690;5.186;2022-07-29T07:15:17;101716.97;;;17.13;65.18
69037;BME280;58547;51.690;5.186;2022-07-29T07:17:46;101721.16;;;17.15;64.89
69037;BME280;58547;51.690;5.186;2022-07-29T07:20:11;101724.03;;;17.25;64.34
69037;BME280;58547;51.690;5.186;2022-07-29T07:22:36;101726.44;;;17.28;64.89
69037;BME280;58547;51.690;5.186;2022-07-29T07:25:02;101718.75;;;17.25;65.72
69037;BME280;58547;51.690;5.186;2022-07-29T07:27:27;101714.22;;;17.27;65.06
69037;BME280;58547;51.690;5.186;2022-07-29T07:29:53;101723.06;;;17.26;64.83
69037;BME280;58547;51.690;5.186;2022-07-29T07:32:18;101720.44;;;17.26;65.59
69037;BME280;58547;51.690;5.186;2022-07-29T07:34:44;101722.75;;;17.31;65.27
69037;BME280;58547;51.690;5.186;2022-07-29T07:37:09;101712.09;;;17.32;64.96
69037;BME280;58547;51.690;5.186;2022-07-29T07:39:34;101718.00;;;17.36;64.74
69037;BME280;58547;51.690;5.186;2022-07-29T07:42:00;101719.34;;;17.42;64.37
69037;BME280;58547;51.690;5.186;2022-07-29T07:44:25;101715.47;;;17.47;64.50
69037;BME280;58547;51.690;5.186;2022-07-29T07:46:51;101709.75;;;17.53;63.85
69037;BME280;58547;51.690;5.186;2022-07-29T07:49:16;101714.41;;;17.63;63.55
69037;BME280;58547;51.690;5.186;2022-07-29T07:51:41;101712.06;;;17.71;64.08
69037;BME280;58547;51.690;5.186;2022-07-29T07:54:07;101716.69;;;17.80;63.76
69037;BME280;58547;51.690;5.186;2022-07-29T07:56:32;101719.56;;;17.90;63.96
69037;BME280;58547;51.690;5.186;2022-07-29T07:58:57;101714.66;;;17.96;63.92
69037;BME280;58547;51.690;5.186;2022-07-29T08:01:22;101719.50;;;18.03;62.57
69037;BME280;58547;51.690;5.186;2022-07-29T08:03:48;101712.91;;;18.08;62.98
69037;BME280;58547;51.690;5.186;2022-07-29T08:06:14;101725.47;;;18.17;62.27
69037;BME280;58547;51.690;5.186;2022-07-29T08:08:39;101718.78;;;18.25;61.91
69037;BME280;58547;51.690;5.186;2022-07-29T08:11:04;101729.13;;;18.28;61.81
69037;BME280;58547;51.690;5.186;2022-07-29T08:13:31;101726.50;;;18.28;62.66
69037;BME280;58547;51.690;5.186;2022-07-29T08:15:57;101726.16;;;18.32;62.19
69037;BME280;58547;51.690;5.186;2022-07-29T08:18:24;101709.03;;;18.38;62.18
69037;BME280;58547;51.690;5.186;2022-07-29T08:20:49;101705.94;;;18.44;61.43
69037;BME280;58547;51.690;5.186;2022-07-29T08:23:15;101706.22;;;18.52;61.24
69037;BME280;58547;51.690;5.186;2022-07-29T08:25:40;101696.41;;;18.66;61.17
69037;BME280;58547;51.690;5.186;2022-07-29T08:28:06;101711.25;;;18.79;61.53
69037;BME280;58547;51.690;5.186;2022-07-29T08:30:31;101705.75;;;18.94;61.53
69037;BME280;58547;51.690;5.186;2022-07-29T08:32:57;101706.38;;;19.09;60.95
69037;BME280;58547;51.690;5.186;2022-07-29T08:35:23;101707.47;;;19.29;60.43
69037;BME280;58547;51.690;5.186;2022-07-29T08:37:49;101716.88;;;19.55;59.84
69037;BME280;58547;51.690;5.186;2022-07-29T08:40:14;101718.44;;;19.80;57.88
69037;BME280;58547;51.690;5.186;2022-07-29T08:42:39;101721.34;;;19.89;58.04
69037;BME280;58547;51.690;5.186;2022-07-29T08:45:05;101724.97;;;19.88;57.91
69037;BME280;58547;51.690;5.186;2022-07-29T08:47:30;101727.97;;;19.94;57.94
69037;BME280;58547;51.690;5.186;2022-07-29T08:49:56;101723.09;;;20.11;58.16
69037;BME280;58547;51.690;5.186;2022-07-29T08:52:21;101723.72;;;20.35;57.34
69037;BME280;58547;51.690;5.186;2022-07-29T08:54:48;101727.91;;;20.60;56.51
69037;BME280;58547;51.690;5.186;2022-07-29T08:57:13;101733.09;;;20.83;56.10
69037;BME280;58547;51.690;5.186;2022-07-29T08:59:40;101726.94;;;21.03;55.70
69037;BME280;58547;51.690;5.186;2022-07-29T09:02:08;101731.66;;;21.21;55.43
69037;BME280;58547;51.690;5.186;2022-07-29T09:04:37;101733.00;;;21.36;53.57
69037;BME280;58547;51.690;5.186;2022-07-29T09:07:04;101733.78;;;21.48;53.54
69037;BME280;58547;51.690;5.186;2022-07-29T09:09:30;101731.75;;;21.61;53.04
69037;BME280;58547;51.690;5.186;2022-07-29T09:11:55;101725.19;;;21.66;51.37
69037;BME280;58547;51.690;5.186;2022-07-29T09:14:21;101732.91;;;21.78;52.75
69037;BME280;58547;51.690;5.186;2022-07-29T09:16:55;101725.56;;;21.92;51.48
69037;BME280;58547;51.690;5.186;2022-07-29T09:19:22;101733.44;;;22.13;51.57
69037;BME280;58547;51.690;5.186;2022-07-29T09:21:47;101731.53;;;22.34;50.60
69037;BME280;58547;51.690;5.186;2022-07-29T09:26:59;101730.97;;;22.60;49.60
69037;BME280;58547;51.690;5.186;2022-07-29T09:29:24;101732.63;;;22.80;49.82
69037;BME280;58547;51.690;5.186;2022-07-29T09:31:51;101730.66;;;23.02;49.07
69037;BME280;58547;51.690;5.186;2022-07-29T09:34:21;101723.34;;;23.23;48.21
69037;BME280;58547;51.690;5.186;2022-07-29T09:36:47;101726.34;;;23.48;46.37
69037;BME280;58547;51.690;5.186;2022-07-29T09:39:13;101729.28;;;23.73;47.20
69037;BME280;58547;51.690;5.186;2022-07-29T09:41:46;101729.50;;;23.89;47.22
69037;BME280;58547;51.690;5.186;2022-07-29T09:44:12;101727.56;;;24.09;46.48
69037;BME280;58547;51.690;5.186;2022-07-29T09:46:37;101726.66;;;24.18;43.56
69037;BME280;58547;51.690;5.186;2022-07-29T09:49:09;101737.03;;;24.21;46.41
69037;BME280;58547;51.690;5.186;2022-07-29T09:51:34;101733.44;;;24.31;46.21
69037;BME280;58547;51.690;5.186;2022-07-29T09:54:00;101735.28;;;24.48;45.04
69037;BME280;58547;51.690;5.186;2022-07-29T09:56:38;101729.94;;;24.48;45.37
69037;BME280;58547;51.690;5.186;2022-07-29T09:59:07;101726.84;;;24.53;45.36
69037;BME280;58547;51.690;5.186;2022-07-29T10:01:32;101725.50;;;24.75;45.36
69037;BME280;58547;51.690;5.186;2022-07-29T10:03:58;101722.59;;;24.86;42.37
69037;BME280;58547;51.690;5.186;2022-07-29T10:06:23;101722.28;;;24.89;42.23
69037;BME280;58547;51.690;5.186;2022-07-29T10:08:48;101718.09;;;24.87;41.83
69037;BME280;58547;51.690;5.186;2022-07-29T10:11:15;101718.84;;;24.97;42.68
69037;BME280;58547;51.690;5.186;2022-07-29T10:13:41;101721.56;;;25.23;42.69
69037;BME280;58547;51.690;5.186;2022-07-29T10:16:07;101715.59;;;25.37;41.10
69037;BME280;58547;51.690;5.186;2022-07-29T10:18:32;101720.69;;;25.57;42.58
69037;BME280;58547;51.690;5.186;2022-07-29T10:20:58;101718.78;;;25.75;40.25
69037;BME280;58547;51.690;5.186;2022-07-29T10:23:26;101724.88;;;26.02;41.26
69037;BME280;58547;51.690;5.186;2022-07-29T10:25:51;101721.06;;;26.37;40.56
69037;BME280;58547;51.690;5.186;2022-07-29T10:28:16;101723.78;;;26.62;39.82
69037;BME280;58547;51.690;5.186;2022-07-29T10:30:41;101719.94;;;26.64;38.52
69037;BME280;58547;51.690;5.186;2022-07-29T10:33:09;101716.75;;;26.44;39.37
69037;BME280;58547;51.690;5.186;2022-07-29T10:35:54;101715.56;;;26.55;39.85
69037;BME280;58547;51.690;5.186;2022-07-29T10:41:11;101714.44;;;27.47;38.91
69037;BME280;58547;51.690;5.186;2022-07-29T10:43:52;101712.63;;;27.78;37.83
69037;BME280;58547;51.690;5.186;2022-07-29T10:46:18;101714.81;;;27.75;37.66
69037;BME280;58547;51.690;5.186;2022-07-29T10:51:50;101718.09;;;27.85;35.79
69037;BME280;58547;51.690;5.186;2022-07-29T10:54:13;101714.38;;;28.02;38.41
69037;BME280;58547;51.690;5.186;2022-07-29T10:56:38;101706.13;;;28.27;34.96
69037;BME280;58547;51.690;5.186;2022-07-29T11:01:42;101703.38;;;28.58;33.95
69037;BME280;58547;51.690;5.186;2022-07-29T11:04:08;101702.94;;;28.70;35.89
69037;BME280;58547;51.690;5.186;2022-07-29T11:09:18;101707.94;;;29.11;36.99
69037;BME280;58547;51.690;5.186;2022-07-29T11:11:43;101707.94;;;29.11;35.95
69037;BME280;58547;51.690;5.186;2022-07-29T11:14:09;101709.81;;;29.02;34.78
69037;BME280;58547;51.690;5.186;2022-07-29T11:17:07;101711.88;;;29.00;36.85
69037;BME280;58547;51.690;5.186;2022-07-29T11:19:27;101706.53;;;29.30;33.51
69037;BME280;58547;51.690;5.186;2022-07-29T11:21:53;101705.50;;;29.45;35.45
69037;BME280;58547;51.690;5.186;2022-07-29T11:24:28;101701.66;;;29.70;35.49
69037;BME280;58547;51.690;5.186;2022-07-29T11:29:33;101701.31;;;28.83;32.45
69037;BME280;58547;51.690;5.186;2022-07-29T11:32:11;101700.56;;;28.90;33.75
69037;BME280;58547;51.690;5.186;2022-07-29T11:34:37;101701.06;;;29.23;34.63
69037;BME280;58547;51.690;5.186;2022-07-29T11:39:40;101704.84;;;29.73;32.22
69037;BME280;58547;51.690;5.186;2022-07-29T11:47:22;101714.66;;;30.67;31.72
69037;BME280;58547;51.690;5.186;2022-07-29T11:49:47;101711.03;;;30.81;32.31
69037;BME280;58547;51.690;5.186;2022-07-29T11:52:13;101711.97;;;30.95;31.69
69037;BME280;58547;51.690;5.186;2022-07-29T11:54:40;101709.13;;;31.03;30.21
69037;BME280;58547;51.690;5.186;2022-07-29T11:57:07;101708.91;;;30.98;31.14
69037;BME280;58547;51.690;5.186;2022-07-29T11:59:32;101713.97;;;31.15;27.90
69037;BME280;58547;51.690;5.186;2022-07-29T12:02:03;101708.81;;;31.20;30.26
69037;BME280;58547;51.690;5.186;2022-07-29T12:04:28;101704.22;;;31.49;28.31
69037;BME280;58547;51.690;5.186;2022-07-29T12:06:54;101710.28;;;31.64;30.33
69037;BME280;58547;51.690;5.186;2022-07-29T12:09:20;101702.81;;;31.73;28.63
69037;BME280;58547;51.690;5.186;2022-07-29T12:11:45;101698.22;;;31.60;28.51
69037;BME280;58547;51.690;5.186;2022-07-29T12:14:24;101701.97;;;31.59;27.84
69037;BME280;58547;51.690;5.186;2022-07-29T12:16:49;101701.38;;;31.83;30.48
69037;BME280;58547;51.690;5.186;2022-07-29T12:19:15;101707.50;;;32.12;30.14
69037;BME280;58547;51.690;5.186;2022-07-29T12:21:58;101717.31;;;32.40;29.52
69037;BME280;58547;51.690;5.186;2022-07-29T12:24:24;101719.56;;;32.50;29.28
69037;BME280;58547;51.690;5.186;2022-07-29T12:26:56;101711.28;;;32.38;28.79
69037;BME280;58547;51.690;5.186;2022-07-29T12:29:22;101710.44;;;32.44;28.16
69037;BME280;58547;51.690;5.186;2022-07-29T12:31:51;101697.78;;;32.64;28.98
69037;BME280;58547;51.690;5.186;2022-07-29T12:34:18;101703.59;;;32.61;26.48
69037;BME280;58547;51.690;5.186;2022-07-29T12:36:44;101709.00;;;32.48;28.18
69037;BME280;58547;51.690;5.186;2022-07-29T12:39:10;101713.16;;;32.44;27.54
69037;BME280;58547;51.690;5.186;2022-07-29T12:41:35;101705.56;;;31.86;25.04
69037;BME280;58547;51.690;5.186;2022-07-29T12:44:01;101707.41;;;31.72;27.03
69037;BME280;58547;51.690;5.186;2022-07-29T12:46:26;101701.19;;;31.85;28.18
69037;BME280;58547;51.690;5.186;2022-07-29T12:48:52;101697.66;;;31.71;27.15
69037;BME280;58547;51.690;5.186;2022-07-29T12:51:31;101693.72;;;31.80;27.77
69037;BME280;58547;51.690;5.186;2022-07-29T12:54:03;101696.44;;;31.94;27.79
69037;BME280;58547;51.690;5.186;2022-07-29T12:56:29;101694.78;;;31.86;26.84
69037;BME280;58547;51.690;5.186;2022-07-29T12:58:54;101696.69;;;31.99;26.24
69037;BME280;58547;51.690;5.186;2022-07-29T13:01:19;101701.81;;;31.74;28.02
69037;BME280;58547;51.690;5.186;2022-07-29T13:14:02;101696.50;;;32.07;27.71
69037;BME280;58547;51.690;5.186;2022-07-29T13:16:28;101689.25;;;32.34;26.43
69037;BME280;58547;51.690;5.186;2022-07-29T13:19:03;101697.16;;;32.49;25.41
69037;BME280;58547;51.690;5.186;2022-07-29T13:21:28;101697.16;;;32.49;26.71
69037;BME280;58547;51.690;5.186;2022-07-29T13:23:53;101700.88;;;32.41;26.03
69037;BME280;58547;51.690;5.186;2022-07-29T13:26:18;101688.41;;;32.27;25.79
69037;BME280;58547;51.690;5.186;2022-07-29T13:28:44;101695.47;;;32.28;27.28
69037;BME280;58547;51.690;5.186;2022-07-29T13:31:10;101695.47;;;32.41;27.66
69037;BME280;58547;51.690;5.186;2022-07-29T13:33:35;101688.44;;;32.60;27.52
69037;BME280;58547;51.690;5.186;2022-07-29T13:36:00;101692.16;;;32.73;26.32
69037;BME280;58547;51.690;5.186;2022-07-29T13:38:26;101701.09;;;32.53;26.11
69037;BME280;58547;51.690;5.186;2022-07-29T13:40:52;101692.16;;;32.53;26.85
69037;BME280;58547;51.690;5.186;2022-07-29T13:43:17;101695.94;;;32.65;27.11